Time;durP1;ratioP1;P1;durP2;ratioP2;P2;SDS_P1;SDS_P2;PMS_P1;PMS_P2;Temp;Humidity;BMP_temperature;BMP_pressure;BME280_temperature;BME280_humidity;BME280_pressure;Samples;Min_cycle;Max_cycle;Signal;HPM_P1;HPM_P2
2023/10/01 00:02:21;;;;;;;8.87;6.57;;;16.40;37.20;;;;;;10415933;28;20233;-70
2023/10/01 00:07:25;;;;;;;7.47;5.37;;;16.50;37.90;;;;;;10413495;28;20230;-70
2023/10/01 00:12:29;;;;;;;6.30;4.93;;;16.50;37.30;;;;;;10421625;28;20279;-70
2023/10/01 00:17:32;;;;;;;8.27;4.97;;;16.60;37.00;;;;;;10418055;28;20233;-70
2023/10/01 00:22:37;;;;;;;7.30;6.07;;;16.60;36.90;;;;;;10415855;28;20232;-70
2023/10/01 00:27:40;;;;;;;7.13;5.53;;;16.60;37.00;;;;;;10416445;28;20232;-70
2023/10/01 00:32:44;;;;;;;7.50;5.87;;;16.60;36.80;;;;;;10416965;28;20233;-70
2023/10/01 00:37:50;;;;;;;7.63;6.00;;;16.60;36.80;;;;;;10417731;28;20232;-70
2023/10/01 00:42:53;;;;;;;7.43;5.60;;;16.60;37.00;;;;;;10419448;28;20229;-70
2023/10/01 00:47:58;;;;;;;8.87;5.80;;;16.60;36.80;;;;;;10417029;28;20344;-70
2023/10/01 00:53:04;;;;;;;6.53;5.40;;;16.60;36.80;;;;;;10412657;28;20232;-69
2023/10/01 00:58:10;;;;;;;6.47;5.13;;;16.60;36.80;;;;;;10420256;28;20221;-69
2023/10/01 01:03:19;;;;;;;8.43;5.70;;;16.50;36.70;;;;;;10419719;28;20217;-69
2023/10/01 01:08:33;;;;;;;7.97;5.50;;;16.40;36.50;;;;;;10416281;28;20323;-69
2023/10/01 01:13:37;;;;;;;8.67;6.10;;;16.40;37.60;;;;;;10420200;28;20738;-69
2023/10/01 01:18:42;;;;;;;7.07;5.50;;;16.30;36.70;;;;;;10415302;28;20224;-69
2023/10/01 01:23:50;;;;;;;8.00;5.83;;;16.30;36.70;;;;;;10415577;28;20595;-69
2023/10/01 01:28:53;;;;;;;11.43;6.63;;;16.30;36.90;;;;;;10411697;28;20236;-69
2023/10/01 01:33:57;;;;;;;8.00;5.77;;;16.20;36.70;;;;;;10417941;28;20234;-69
2023/10/01 01:39:26;;;;;;;8.20;6.03;;;16.00;36.70;;;;;;10421422;28;20229;-69
2023/10/01 01:44:31;;;;;;;8.20;6.40;;;15.80;37.90;;;;;;10412733;28;20217;-69
2023/10/01 01:49:34;;;;;;;8.63;6.33;;;15.70;37.10;;;;;;10418867;28;20228;-69
2023/10/01 01:54:43;;;;;;;8.93;6.43;;;15.40;37.20;;;;;;10413381;28;20332;-69
2023/10/01 01:59:46;;;;;;;7.60;5.50;;;15.30;38.10;;;;;;10412494;28;20779;-69
2023/10/01 02:04:59;;;;;;;8.63;6.40;;;15.10;37.80;;;;;;10414692;28;20231;-69
2023/10/01 02:10:06;;;;;;;8.47;5.83;;;15.00;38.10;;;;;;10410607;28;20225;-69
2023/10/01 02:15:11;;;;;;;7.97;5.60;;;14.90;38.50;;;;;;10412018;28;20228;-69
2023/10/01 02:20:21;;;;;;;6.80;5.13;;;14.80;38.30;;;;;;10418661;28;20224;-69
2023/10/01 02:25:36;;;;;;;8.43;6.03;;;14.80;38.40;;;;;;10415540;28;20310;-69
2023/10/01 02:30:41;;;;;;;9.73;5.50;;;14.90;38.90;;;;;;10416404;28;20223;-69
2023/10/01 02:35:46;;;;;;;6.07;4.90;;;14.90;38.40;;;;;;10411817;28;20237;-69
2023/10/01 02:40:51;;;;;;;6.57;5.30;;;15.00;38.50;;;;;;10413466;28;20809;-69
2023/10/01 02:45:54;;;;;;;8.13;5.57;;;15.10;38.70;;;;;;10414482;28;20740;-69
2023/10/01 02:51:14;;;;;;;7.97;5.53;;;15.20;38.30;;;;;;10413090;28;20229;-69
2023/10/01 02:56:18;;;;;;;6.93;5.50;;;15.20;38.40;;;;;;10416241;28;20264;-69
2023/10/01 03:01:22;;;;;;;6.73;5.07;;;15.20;38.40;;;;;;10416429;28;20352;-69
2023/10/01 03:06:25;;;;;;;7.13;5.37;;;15.20;38.10;;;;;;10409767;28;20253;-69
2023/10/01 03:11:40;;;;;;;8.23;5.93;;;15.10;38.20;;;;;;10421554;28;20237;-69
2023/10/01 03:16:45;;;;;;;7.93;5.97;;;15.10;38.90;;;;;;10420664;28;20262;-69
2023/10/01 03:27:27;;;;;;;7.00;5.43;;;15.10;38.80;;;;;;10417591;28;20232;-69
2023/10/01 03:32:32;;;;;;;7.20;5.73;;;15.10;39.30;;;;;;10421467;28;20282;-69
2023/10/01 03:37:39;;;;;;;7.40;5.60;;;15.10;39.00;;;;;;10415623;28;20925;-69
2023/10/01 03:42:50;;;;;;;8.83;5.53;;;15.10;38.90;;;;;;10419540;28;20314;-69
2023/10/01 03:47:58;;;;;;;6.63;5.20;;;15.10;39.20;;;;;;10421939;28;20295;-69
2023/10/01 03:53:10;;;;;;;7.77;5.30;;;15.10;39.00;;;;;;10418189;28;20248;-69
2023/10/01 03:58:26;;;;;;;7.80;5.53;;;15.10;39.10;;;;;;10422922;28;20238;-69
2023/10/01 04:03:38;;;;;;;7.10;5.43;;;15.10;39.60;;;;;;10415667;28;20320;-69
2023/10/01 04:08:44;;;;;;;7.70;5.30;;;15.20;39.30;;;;;;10420935;28;20228;-69
2023/10/01 04:14:07;;;;;;;8.73;5.73;;;15.20;39.00;;;;;;10421413;28;20663;-69
2023/10/01 04:19:11;;;;;;;7.13;5.10;;;15.30;39.50;;;;;;10417061;28;20248;-69
2023/10/01 04:24:16;;;;;;;6.47;5.03;;;15.30;39.00;;;;;;10420444;28;20230;-69
2023/10/01 04:29:20;;;;;;;9.33;5.50;;;15.30;39.00;;;;;;10416985;28;20233;-69
2023/10/01 04:34:27;;;;;;;5.67;4.80;;;15.30;39.20;;;;;;10415171;28;20257;-69
2023/10/01 04:39:30;;;;;;;6.73;4.77;;;15.30;39.00;;;;;;10417410;28;20228;-69
2023/10/01 04:44:36;;;;;;;7.23;5.30;;;15.30;38.80;;;;;;10418811;28;20229;-69
2023/10/01 04:49:42;;;;;;;8.47;5.73;;;15.40;38.90;;;;;;10414502;28;20230;-69
2023/10/01 04:54:49;;;;;;;6.60;5.57;;;15.30;38.60;;;;;;10416979;28;20229;-69
2023/10/01 04:59:57;;;;;;;6.67;5.50;;;15.20;38.50;;;;;;10416609;28;20306;-69
2023/10/01 05:05:10;;;;;;;7.83;6.03;;;15.20;39.00;;;;;;10418645;28;20229;-69
2023/10/01 05:10:14;;;;;;;8.60;5.87;;;15.20;38.90;;;;;;10420421;28;20255;-69
2023/10/01 05:15:24;;;;;;;6.70;5.57;;;15.10;38.70;;;;;;10421644;28;20294;-69
2023/10/01 05:20:28;;;;;;;7.67;5.77;;;15.10;38.90;;;;;;10414193;28;20264;-69
2023/10/01 05:25:31;;;;;;;5.70;4.30;;;15.10;38.70;;;;;;10418415;28;20247;-69
2023/10/01 05:30:39;;;;;;;8.40;5.53;;;15.10;38.60;;;;;;10416814;28;20249;-69
2023/10/01 05:35:44;;;;;;;6.57;5.20;;;15.10;38.90;;;;;;10414034;28;20252;-69
2023/10/01 05:40:52;;;;;;;8.20;5.93;;;15.00;38.60;;;;;;10417090;28;20235;-69
2023/10/01 05:46:01;;;;;;;7.97;5.57;;;14.90;38.80;;;;;;10412473;28;20320;-69
2023/10/01 05:51:06;;;;;;;8.77;5.67;;;14.70;39.10;;;;;;10413060;28;20256;-69
2023/10/01 05:56:11;;;;;;;9.30;5.43;;;14.50;39.10;;;;;;10412458;28;20237;-69
2023/10/01 06:01:16;;;;;;;8.23;5.80;;;14.40;39.60;;;;;;10417010;28;21031;-69
2023/10/01 06:06:25;;;;;;;7.63;5.87;;;14.40;40.10;;;;;;10412100;28;20864;-69
2023/10/01 06:11:48;;;;;;;9.00;5.63;;;14.40;39.90;;;;;;10413597;28;20268;-69
2023/10/01 06:16:53;;;;;;;9.97;6.37;;;14.50;40.20;;;;;;10411736;28;20307;-69
2023/10/01 06:22:12;;;;;;;6.73;5.50;;;14.60;40.40;;;;;;10419774;28;20237;-69
2023/10/01 06:27:18;;;;;;;7.87;5.93;;;14.70;40.20;;;;;;10419896;28;20765;-70
2023/10/01 06:32:26;;;;;;;7.00;5.73;;;14.70;40.10;;;;;;10416101;28;20228;-71
2023/10/01 06:37:45;;;;;;;7.50;5.90;;;14.80;40.80;;;;;;10412770;28;20309;-71
2023/10/01 06:42:49;;;;;;;7.40;5.90;;;14.90;40.40;;;;;;10416001;28;20267;-71
2023/10/01 06:47:53;;;;;;;8.97;6.87;;;15.00;40.60;;;;;;10421630;28;20241;-71
2023/10/01 06:53:00;;;;;;;7.47;6.57;;;15.10;41.20;;;;;;10421311;28;20307;-72
2023/10/01 06:58:06;;;;;;;9.33;6.87;;;15.10;40.90;;;;;;10423733;28;20363;-72
2023/10/01 07:03:21;;;;;;;10.73;7.17;;;15.20;41.30;;;;;;10418474;28;20226;-72
2023/10/01 07:08:37;;;;;;;9.67;7.33;;;15.30;41.70;;;;;;10418939;28;20319;-72
2023/10/01 07:13:42;;;;;;;13.03;8.63;;;15.30;41.40;;;;;;10422014;28;20250;-72
2023/10/01 07:18:47;;;;;;;12.30;8.40;;;15.40;41.70;;;;;;10419203;28;20231;-72
2023/10/01 07:23:50;;;;;;;11.23;8.67;;;15.50;42.20;;;;;;10417221;28;20578;-72
2023/10/01 07:28:56;;;;;;;11.30;8.90;;;15.60;42.10;;;;;;10421230;28;20240;-71
2023/10/01 07:34:12;;;;;;;16.23;9.17;;;15.80;42.30;;;;;;10419322;28;20690;-72
2023/10/01 07:39:16;;;;;;;13.93;9.80;;;16.00;43.00;;;;;;10425778;28;20221;-72
2023/10/01 07:44:22;;;;;;;12.20;9.50;;;16.20;42.70;;;;;;10421296;28;20639;-72
2023/10/01 07:49:41;;;;;;;13.33;10.33;;;16.40;42.90;;;;;;10425515;28;20290;-72
2023/10/01 07:54:47;;;;;;;12.73;9.60;;;16.60;43.30;;;;;;10423705;28;20224;-72
2023/10/01 07:59:53;;;;;;;12.90;9.83;;;16.90;43.40;;;;;;10427268;28;20667;-73
2023/10/01 08:04:58;;;;;;;11.43;8.97;;;17.10;43.40;;;;;;10418785;28;20233;-73
2023/10/01 08:10:04;;;;;;;12.07;9.03;;;17.40;43.70;;;;;;10423156;28;20240;-73
2023/10/01 08:15:31;;;;;;;13.90;10.13;;;17.60;43.40;;;;;;10418590;28;20225;-71
2023/10/01 08:20:36;;;;;;;12.33;8.87;;;17.90;44.30;;;;;;10421479;28;20233;-72
2023/10/01 08:25:51;;;;;;;13.90;9.90;;;18.30;43.90;;;;;;10414501;28;20236;-71
2023/10/01 08:31:43;;;;;;;12.67;9.10;;;18.60;43.20;;;;;;10417741;28;20653;-73
2023/10/01 08:36:36;;;;;;;11.70;8.80;;;18.90;43.20;;;;;;10417129;28;20250;-71
2023/10/01 08:41:50;;;;;;;11.47;8.70;;;19.20;43.10;;;;;;10417170;28;20239;-72
2023/10/01 08:46:56;;;;;;;10.87;8.20;;;19.40;43.10;;;;;;10417520;28;20820;-70
2023/10/01 08:57:45;;;;;;;11.63;8.30;;;20.00;42.70;;;;;;10415554;28;20230;-71
2023/10/01 09:02:55;;;;;;;10.77;8.33;;;20.30;42.40;;;;;;10412325;28;20232;-71
2023/10/01 09:08:28;;;;;;;12.80;8.93;;;20.60;42.20;;;;;;10410702;28;20712;-71
2023/10/01 09:13:31;;;;;;;11.87;8.33;;;20.80;41.90;;;;;;10414167;28;20222;-71
2023/10/01 09:18:37;;;;;;;13.20;8.80;;;21.10;41.80;;;;;;10421918;28;20238;-71
2023/10/01 09:23:55;;;;;;;12.97;8.63;;;21.30;41.40;;;;;;10421635;28;20216;-71
2023/10/01 09:29:12;;;;;;;14.00;8.77;;;21.50;40.90;;;;;;10412296;28;20248;-71
2023/10/01 09:34:31;;;;;;;13.30;8.20;;;21.80;40.60;;;;;;10418441;28;20308;-71
2023/10/01 09:39:41;;;;;;;12.13;8.17;;;22.10;40.50;;;;;;10412965;28;20229;-72
2023/10/01 09:44:46;;;;;;;11.97;8.50;;;22.30;39.60;;;;;;10417031;28;20229;-72
2023/10/01 09:49:52;;;;;;;12.90;9.40;;;22.60;39.50;;;;;;10420730;28;20233;-72
2023/10/01 09:55:03;;;;;;;12.87;8.53;;;22.70;38.90;;;;;;10412986;28;20229;-72
2023/10/01 10:00:18;;;;;;;11.57;8.77;;;22.80;38.40;;;;;;10415370;28;20730;-71
2023/10/01 10:05:26;;;;;;;13.87;9.03;;;22.90;38.50;;;;;;10418565;28;22460;-72
2023/10/01 10:10:31;;;;;;;12.87;8.70;;;23.00;39.10;;;;;;10414985;28;20232;-72
2023/10/01 10:15:55;;;;;;;12.30;8.23;;;23.10;38.20;;;;;;10416590;28;20300;-72
2023/10/01 10:21:00;;;;;;;12.67;8.57;;;23.30;37.20;;;;;;10416665;28;20233;-72
2023/10/01 10:26:13;;;;;;;14.00;8.20;;;23.40;37.60;;;;;;10423298;28;20217;-71
2023/10/01 10:31:33;;;;;;;12.07;8.23;;;23.50;37.30;;;;;;10428481;28;20238;-71
2023/10/01 10:36:50;;;;;;;11.77;8.50;;;23.70;37.40;;;;;;10424708;28;20256;-73
2023/10/01 10:42:29;;;;;;;12.70;8.67;;;23.90;37.00;;;;;;10425442;28;20236;-73
2023/10/01 10:47:58;;;;;;;13.07;8.57;;;24.10;36.20;;;;;;10419769;28;20228;-73
2023/10/01 10:53:14;;;;;;;13.77;8.80;;;24.30;35.90;;;;;;10431367;28;20225;-72
2023/10/01 10:58:19;;;;;;;14.07;8.77;;;24.40;36.20;;;;;;10423658;28;20237;-72
2023/10/01 11:03:40;;;;;;;12.47;8.60;;;24.50;35.40;;;;;;10422989;28;20724;-72
2023/10/01 11:08:50;;;;;;;12.90;8.17;;;24.60;34.40;;;;;;10420554;28;20233;-73
2023/10/01 11:14:05;;;;;;;23.17;11.27;;;24.70;35.30;;;;;;10423196;28;20233;-72
2023/10/01 11:19:16;;;;;;;12.27;9.07;;;24.80;35.40;;;;;;10424540;28;20787;-72
2023/10/01 11:24:21;;;;;;;12.53;8.77;;;24.90;34.60;;;;;;10423274;28;20228;-73
2023/10/01 11:29:29;;;;;;;14.37;9.00;;;24.90;35.20;;;;;;10422559;28;20249;-73
2023/10/01 11:34:43;;;;;;;12.50;8.57;;;24.90;34.50;;;;;;10422551;28;20332;-73
2023/10/01 11:39:52;;;;;;;12.10;8.53;;;25.00;34.00;;;;;;10419029;28;20237;-73
2023/10/01 11:44:57;;;;;;;13.40;8.67;;;25.10;34.50;;;;;;10417594;28;20229;-73
2023/10/01 11:50:07;;;;;;;12.87;8.67;;;25.10;33.60;;;;;;10421577;28;20243;-73
2023/10/01 11:55:19;;;;;;;12.10;8.20;;;25.20;33.00;;;;;;10418085;28;20221;-73
2023/10/01 12:00:52;;;;;;;12.67;8.70;;;25.20;34.00;;;;;;10421528;28;20240;-73
2023/10/01 12:05:57;;;;;;;16.37;8.67;;;25.30;33.10;;;;;;10417692;28;20295;-73
2023/10/01 12:11:26;;;;;;;11.73;7.80;;;25.40;33.50;;;;;;10420460;28;20261;-73
2023/10/01 12:16:29;;;;;;;11.07;8.00;;;25.50;33.60;;;;;;10417600;28;21205;-73
2023/10/01 12:21:33;;;;;;;13.07;8.53;;;25.60;32.80;;;;;;10420721;28;20229;-73
2023/10/01 12:26:38;;;;;;;13.83;8.50;;;25.60;32.50;;;;;;10418557;28;20245;-73
2023/10/01 12:31:44;;;;;;;13.73;8.67;;;25.50;32.30;;;;;;10418445;28;20236;-73
2023/10/01 12:36:48;;;;;;;13.07;8.63;;;25.40;32.00;;;;;;10421396;28;20225;-73
2023/10/01 12:41:57;;;;;;;13.10;8.77;;;25.40;32.50;;;;;;10418919;28;20227;-73
2023/10/01 12:47:03;;;;;;;11.90;7.77;;;25.40;32.40;;;;;;10423331;28;20233;-73
2023/10/01 12:52:08;;;;;;;15.47;8.83;;;25.40;31.70;;;;;;10418909;28;20294;-73
2023/10/01 12:57:18;;;;;;;13.60;8.57;;;25.40;32.50;;;;;;10418733;28;20233;-73
2023/10/01 13:02:28;;;;;;;13.30;8.83;;;25.40;32.30;;;;;;10417982;28;20229;-73
2023/10/01 13:07:35;;;;;;;11.63;8.30;;;25.40;31.70;;;;;;10415154;28;20312;-73
2023/10/01 13:12:53;;;;;;;11.13;8.03;;;25.40;31.90;;;;;;10414447;28;20252;-73
2023/10/01 13:18:01;;;;;;;11.07;8.17;;;25.50;31.80;;;;;;10418799;28;20650;-73
2023/10/01 13:23:07;;;;;;;10.20;7.53;;;25.40;31.10;;;;;;10418725;28;20220;-73
2023/10/01 13:28:17;;;;;;;13.30;8.20;;;25.50;31.70;;;;;;10415834;28;20234;-73
2023/10/01 13:33:25;;;;;;;9.90;7.67;;;25.50;31.50;;;;;;10419308;28;20829;-73
2023/10/01 13:38:56;;;;;;;10.80;7.83;;;25.60;30.90;;;;;;10419935;28;21234;-73
2023/10/01 14:10:54;;;;;;;11.83;7.57;;;25.70;29.00;;;;;;10409447;28;20317;-73
2023/10/01 14:16:11;;;;;;;11.03;7.53;;;25.70;30.00;;;;;;10417904;28;20316;-73
2023/10/01 14:21:16;;;;;;;11.07;7.70;;;25.70;29.70;;;;;;10415651;28;20226;-74
2023/10/01 14:26:26;;;;;;;10.73;7.60;;;25.70;29.00;;;;;;10413380;28;20253;-74
2023/10/01 14:31:48;;;;;;;10.93;7.30;;;25.70;29.50;;;;;;10412102;28;20310;-74
2023/10/01 14:36:58;;;;;;;9.30;6.97;;;25.80;29.10;;;;;;10415117;28;20328;-73
2023/10/01 14:42:01;;;;;;;12.50;7.53;;;25.80;28.80;;;;;;10417378;28;20279;-73
2023/10/01 14:47:17;;;;;;;11.53;7.27;;;25.80;29.10;;;;;;10409496;28;20218;-73
2023/10/01 14:52:23;;;;;;;8.83;7.17;;;25.80;28.00;;;;;;10405811;28;20278;-72
2023/10/01 14:57:28;;;;;;;8.93;6.93;;;25.80;28.00;;;;;;10414283;28;20233;-71
2023/10/01 15:02:36;;;;;;;9.57;7.40;;;25.90;28.90;;;;;;10409392;28;20227;-72
2023/10/01 15:07:41;;;;;;;10.53;7.67;;;25.80;29.10;;;;;;10417891;28;20225;-72
2023/10/01 15:12:48;;;;;;;9.10;6.67;;;25.80;28.10;;;;;;10416294;28;20221;-72
2023/10/01 15:18:17;;;;;;;11.43;7.60;;;25.80;28.80;;;;;;10417387;28;20253;-72
2023/10/01 15:23:22;;;;;;;10.43;7.47;;;25.80;28.90;;;;;;10420924;28;20236;-72
2023/10/01 15:28:27;;;;;;;9.93;7.40;;;25.70;28.40;;;;;;10419244;28;20233;-72
2023/10/01 15:33:30;;;;;;;9.83;7.00;;;25.80;29.00;;;;;;10417418;28;20229;-72
2023/10/01 15:38:35;;;;;;;11.07;7.77;;;25.70;29.00;;;;;;10422710;28;20307;-72
2023/10/01 15:43:50;;;;;;;9.87;7.23;;;25.70;28.80;;;;;;10422756;28;20303;-72
2023/10/01 15:48:53;;;;;;;9.67;7.53;;;25.80;29.10;;;;;;10414254;28;20304;-72
2023/10/01 15:54:00;;;;;;;11.47;7.43;;;25.80;29.10;;;;;;10418634;28;20229;-72
2023/10/01 15:59:10;;;;;;;11.07;7.80;;;25.70;29.00;;;;;;10421068;28;20316;-72
2023/10/01 16:04:15;;;;;;;12.37;7.40;;;25.70;29.00;;;;;;10415701;28;20711;-73
2023/10/01 16:09:20;;;;;;;9.07;6.70;;;25.70;29.00;;;;;;10421580;28;20228;-72
2023/10/01 16:14:26;;;;;;;10.03;7.03;;;25.60;29.00;;;;;;10419506;28;20236;-73
2023/10/01 16:19:29;;;;;;;9.33;7.37;;;25.50;29.40;;;;;;10416962;28;20232;-72
2023/10/01 16:24:39;;;;;;;9.37;7.37;;;25.50;29.50;;;;;;10420984;28;20299;-72
2023/10/01 16:29:43;;;;;;;22.27;7.47;;;25.40;29.50;;;;;;10414858;28;20280;-72
2023/10/01 16:34:46;;;;;;;31.40;7.77;;;25.40;29.90;;;;;;10419351;28;20229;-72
2023/10/01 16:39:51;;;;;;;8.97;6.93;;;25.30;29.90;;;;;;10419097;28;20701;-72
2023/10/01 16:44:57;;;;;;;12.07;8.07;;;25.20;30.00;;;;;;10414736;28;20756;-72
2023/10/01 16:50:04;;;;;;;13.23;7.83;;;25.20;30.00;;;;;;10416136;28;20233;-72
2023/10/01 16:55:09;;;;;;;13.50;9.40;;;25.10;30.20;;;;;;10411595;28;20367;-72
2023/10/01 17:00:16;;;;;;;11.43;9.23;;;24.90;30.20;;;;;;10412654;28;20231;-72
2023/10/01 17:05:19;;;;;;;9.07;7.43;;;24.90;30.30;;;;;;10412681;28;20229;-72
2023/10/01 17:10:25;;;;;;;9.87;8.20;;;24.80;30.30;;;;;;10418264;28;20232;-72
2023/10/01 17:15:41;;;;;;;9.83;7.70;;;24.70;30.40;;;;;;10413994;28;20309;-72
2023/10/01 17:20:50;;;;;;;9.27;7.10;;;24.50;30.50;;;;;;10413544;28;20766;-72
2023/10/01 17:26:00;;;;;;;10.17;8.00;;;24.40;30.50;;;;;;10414193;28;20216;-72
2023/10/01 17:31:07;;;;;;;12.93;8.83;;;24.30;30.70;;;;;;10413625;28;20595;-73
2023/10/01 17:36:12;;;;;;;10.40;8.07;;;24.10;30.40;;;;;;10414882;28;20225;-73
2023/10/01 17:41:21;;;;;;;11.73;9.03;;;24.00;30.60;;;;;;10413122;28;20367;-73
2023/10/01 17:46:27;;;;;;;13.37;10.37;;;23.80;30.80;;;;;;10414522;28;20288;-73
2023/10/01 17:51:31;;;;;;;14.37;9.17;;;23.60;30.80;;;;;;10418533;28;20291;-73
2023/10/01 17:56:37;;;;;;;10.63;8.73;;;23.30;30.70;;;;;;10413568;28;20319;-73
2023/10/01 18:01:44;;;;;;;11.23;8.07;;;22.90;31.40;;;;;;10413119;28;20235;-73
2023/10/01 18:06:57;;;;;;;12.03;7.87;;;22.70;31.50;;;;;;10413010;28;20312;-73
2023/10/01 18:12:02;;;;;;;11.67;7.60;;;22.60;31.80;;;;;;10413815;28;20235;-72
2023/10/01 18:17:05;;;;;;;12.07;7.60;;;22.60;32.00;;;;;;10411554;28;20223;-72
2023/10/01 18:22:14;;;;;;;10.93;7.47;;;22.50;31.80;;;;;;10413956;28;20278;-72
2023/10/01 18:27:23;;;;;;;10.07;6.60;;;22.40;31.60;;;;;;10407331;28;20327;-72
2023/10/01 18:32:27;;;;;;;11.83;8.10;;;22.20;31.90;;;;;;10415583;28;20228;-72
2023/10/01 18:37:35;;;;;;;9.77;7.50;;;22.10;32.10;;;;;;10414348;28;20303;-72
2023/10/01 18:42:42;;;;;;;13.50;8.90;;;22.00;32.20;;;;;;10422509;28;20572;-72
2023/10/01 18:47:47;;;;;;;14.10;8.63;;;21.90;32.30;;;;;;10420153;28;20320;-73
2023/10/01 18:52:51;;;;;;;11.77;8.13;;;21.80;32.00;;;;;;10422387;28;20233;-72
2023/10/01 18:57:56;;;;;;;13.77;8.40;;;21.60;32.20;;;;;;10421542;28;20976;-72
2023/10/01 19:03:01;;;;;;;13.97;8.77;;;21.40;32.80;;;;;;10421046;28;20244;-72
2023/10/01 19:08:06;;;;;;;11.07;8.10;;;21.20;32.60;;;;;;10420030;28;21139;-72
2023/10/01 19:13:13;;;;;;;9.07;7.57;;;21.00;33.00;;;;;;10420639;28;20228;-72
2023/10/01 19:18:16;;;;;;;11.30;7.93;;;20.90;33.40;;;;;;10421047;28;20235;-72
2023/10/01 19:23:20;;;;;;;10.83;7.60;;;20.90;33.30;;;;;;10419538;28;20220;-72
2023/10/01 19:28:27;;;;;;;9.97;7.27;;;20.90;33.30;;;;;;10417227;28;20594;-73
2023/10/01 19:33:34;;;;;;;10.37;7.40;;;20.90;33.50;;;;;;10417014;28;20233;-72
2023/10/01 19:38:37;;;;;;;12.30;8.67;;;20.90;33.30;;;;;;10419700;28;20247;-72
2023/10/01 19:43:44;;;;;;;11.57;7.80;;;20.80;33.10;;;;;;10419185;28;20654;-73
2023/10/01 19:48:49;;;;;;;9.90;7.10;;;20.60;33.20;;;;;;10417898;28;20239;-73
2023/10/01 19:54:00;;;;;;;12.23;7.37;;;20.50;33.70;;;;;;10416320;28;20291;-72
2023/10/01 19:59:14;;;;;;;11.67;8.17;;;20.30;34.10;;;;;;10419074;28;20244;-72
2023/10/01 20:04:18;;;;;;;13.23;9.43;;;20.20;34.10;;;;;;10420344;28;20303;-73
2023/10/01 20:09:26;;;;;;;13.87;9.53;;;20.20;33.60;;;;;;10412065;28;21769;-73
2023/10/01 20:14:34;;;;;;;12.57;9.23;;;20.20;33.50;;;;;;10407142;28;20220;-73
2023/10/01 20:19:42;;;;;;;12.87;9.27;;;20.10;34.10;;;;;;10410263;28;20240;-73
2023/10/01 20:24:52;;;;;;;11.23;8.43;;;20.00;33.90;;;;;;10414745;28;20774;-73
2023/10/01 20:29:56;;;;;;;10.63;7.27;;;19.80;34.20;;;;;;10413302;28;20261;-73
2023/10/01 20:35:00;;;;;;;8.20;6.97;;;19.60;34.10;;;;;;10410808;28;20801;-73
2023/10/01 20:40:09;;;;;;;9.57;7.10;;;19.30;34.00;;;;;;10408847;28;20238;-73
2023/10/01 20:45:23;;;;;;;9.50;7.13;;;19.20;34.20;;;;;;10412554;28;20233;-73
2023/10/01 20:50:40;;;;;;;9.93;7.77;;;19.20;34.50;;;;;;10413679;28;20244;-73
2023/10/01 20:55:44;;;;;;;9.40;6.90;;;19.10;34.70;;;;;;10411936;28;20258;-73
2023/10/01 21:00:50;;;;;;;12.50;7.07;;;19.10;34.20;;;;;;10408587;28;20988;-73
2023/10/01 21:05:55;;;;;;;11.60;7.20;;;19.10;34.60;;;;;;10406133;28;20229;-73
2023/10/01 21:11:02;;;;;;;8.60;6.40;;;19.10;34.30;;;;;;10417748;28;20248;-73
2023/10/01 21:16:06;;;;;;;10.63;7.90;;;19.00;34.10;;;;;;10408715;28;20252;-73
2023/10/01 21:21:11;;;;;;;8.83;7.40;;;18.90;34.60;;;;;;10408829;28;20245;-73
2023/10/01 21:26:22;;;;;;;10.03;7.00;;;18.90;35.30;;;;;;10407214;28;20220;-73
2023/10/01 21:31:27;;;;;;;9.47;6.80;;;18.90;34.60;;;;;;10415670;28;21052;-73
2023/10/01 21:36:31;;;;;;;9.50;6.60;;;18.90;34.80;;;;;;10407920;28;20224;-73
2023/10/01 21:41:35;;;;;;;10.67;7.30;;;18.90;34.60;;;;;;10416852;28;20661;-73
2023/10/01 21:46:40;;;;;;;9.70;6.93;;;18.80;34.40;;;;;;10412689;28;20226;-73
2023/10/01 21:51:45;;;;;;;9.90;6.73;;;18.80;34.70;;;;;;10409728;28;20335;-73
2023/10/01 21:56:49;;;;;;;8.77;6.93;;;18.80;34.40;;;;;;10417658;28;20226;-73
2023/10/01 22:02:01;;;;;;;8.87;7.00;;;18.70;34.40;;;;;;10412068;28;20242;-73
2023/10/01 22:07:05;;;;;;;10.00;7.00;;;18.70;34.70;;;;;;10411876;28;20284;-73
2023/10/01 22:12:14;;;;;;;9.17;6.50;;;18.70;34.80;;;;;;10412561;28;20288;-73
2023/10/01 22:17:34;;;;;;;8.47;6.67;;;18.60;34.90;;;;;;10417072;28;20382;-73
2023/10/01 22:22:38;;;;;;;8.70;6.17;;;18.60;35.30;;;;;;10421948;28;20235;-73
2023/10/01 22:28:02;;;;;;;10.97;7.17;;;18.50;34.90;;;;;;10424060;28;20247;-73
2023/10/01 22:33:07;;;;;;;9.17;6.77;;;18.50;34.70;;;;;;10417424;28;20276;-73
2023/10/01 22:38:21;;;;;;;9.70;6.70;;;18.50;35.20;;;;;;10415754;28;20245;-73
2023/10/01 22:43:26;;;;;;;7.97;6.03;;;18.50;35.00;;;;;;10423345;28;20726;-73
2023/10/01 22:48:43;;;;;;;10.10;6.40;;;18.40;35.10;;;;;;10421412;28;20596;-73
2023/10/01 22:53:46;;;;;;;8.40;6.30;;;18.40;35.10;;;;;;10416800;28;20225;-73
2023/10/01 22:58:50;;;;;;;8.70;6.63;;;18.40;35.10;;;;;;10419684;28;20227;-73
2023/10/01 23:04:09;;;;;;;8.90;6.87;;;18.30;35.00;;;;;;10418278;28;20264;-73
2023/10/01 23:09:18;;;;;;;11.67;6.83;;;18.30;35.00;;;;;;10418917;28;20311;-73
2023/10/01 23:14:22;;;;;;;9.70;7.13;;;18.30;35.00;;;;;;10418518;28;20233;-73
2023/10/01 23:24:51;;;;;;;9.33;6.17;;;18.10;34.80;;;;;;10415915;28;20232;-74
2023/10/01 23:29:55;;;;;;;9.33;6.57;;;18.00;34.70;;;;;;10421744;28;20221;-73
2023/10/01 23:35:00;;;;;;;7.53;5.90;;;18.00;34.70;;;;;;10418470;28;20231;-73
2023/10/01 23:40:08;;;;;;;7.70;5.87;;;17.90;34.80;;;;;;10419524;28;20225;-73
2023/10/01 23:45:15;;;;;;;9.93;6.37;;;17.90;34.70;;;;;;10421730;28;20243;-73
2023/10/01 23:50:29;;;;;;;9.30;6.73;;;17.80;35.00;;;;;;10415775;28;20283;-73
2023/10/01 23:55:34;;;;;;;7.97;5.87;;;17.70;35.10;;;;;;10421054;28;20231;-73
